createdAt,value
2019-05-07T00:00:52.705Z,7.50
2019-05-07T00:03:22.082Z,7.40
2019-05-07T00:05:53.864Z,7.40
2019-05-07T00:08:23.052Z,7.40
2019-05-07T00:10:53.012Z,7.30
2019-05-07T00:13:22.833Z,7.30
2019-05-07T00:15:52.902Z,7.30
2019-05-07T00:18:22.940Z,7.20
2019-05-07T00:20:52.994Z,7.10
2019-05-07T00:23:23.307Z,7.20
2019-05-07T00:25:53.008Z,7.10
2019-05-07T00:28:23.073Z,7.10
2019-05-07T00:30:52.419Z,7.00
2019-05-07T00:33:22.843Z,7.00
2019-05-07T00:35:53.997Z,6.90
2019-05-07T00:38:25.242Z,6.90
2019-05-07T00:40:56.152Z,6.80
2019-05-07T00:43:27.098Z,6.80
2019-05-07T00:45:58.268Z,6.80
2019-05-07T00:48:27.869Z,6.70
2019-05-07T00:51:14.645Z,6.60
2019-05-07T00:53:43.917Z,6.50
2019-05-07T00:56:13.185Z,6.50
2019-05-07T00:58:42.932Z,6.40
2019-05-07T01:01:13.084Z,6.40
2019-05-07T01:03:42.717Z,6.40
2019-05-07T01:06:12.936Z,6.40
2019-05-07T01:08:43.022Z,6.30
2019-05-07T01:11:13.160Z,6.30
2019-05-07T01:13:43.461Z,6.30
2019-05-07T01:16:13.373Z,6.30
2019-05-07T01:18:42.638Z,6.20
2019-05-07T01:21:13.213Z,6.20
2019-05-07T01:23:42.887Z,6.10
2019-05-07T01:26:12.597Z,6.10
2019-05-07T01:29:02.480Z,6.00
2019-05-07T01:31:34.439Z,5.90
2019-05-07T01:34:22.932Z,5.90
2019-05-07T01:36:52.389Z,5.90
2019-05-07T01:39:23.216Z,5.90
2019-05-07T01:41:53.625Z,5.80
2019-05-07T01:44:23.234Z,5.80
2019-05-07T01:46:52.989Z,5.80
2019-05-07T01:49:24.026Z,5.70
2019-05-07T01:51:53.797Z,5.70
2019-05-07T01:54:23.788Z,5.60
2019-05-07T01:56:53.524Z,5.50
2019-05-07T01:59:22.797Z,5.50
2019-05-07T02:01:53.971Z,5.50
2019-05-07T02:04:32.684Z,5.40
2019-05-07T02:07:06.596Z,5.40
2019-05-07T02:09:37.846Z,5.40
2019-05-07T02:12:09.097Z,5.40
2019-05-07T02:14:38.366Z,5.40
2019-05-07T02:17:07.635Z,5.30
2019-05-07T02:19:36.907Z,5.20
2019-05-07T02:22:06.173Z,5.20
2019-05-07T02:24:35.438Z,5.20
2019-05-07T02:27:04.767Z,5.10
2019-05-07T02:29:34.299Z,5.10
2019-05-07T02:32:04.672Z,5.00
2019-05-07T02:34:34.669Z,5.00
2019-05-07T02:37:05.675Z,5.00
2019-05-07T02:39:36.574Z,4.90
2019-05-07T02:42:06.129Z,4.90
2019-05-07T02:44:37.302Z,4.90
2019-05-07T02:47:08.205Z,4.80
2019-05-07T02:49:39.109Z,4.80
2019-05-07T02:52:13.216Z,4.70
2019-05-07T02:54:58.017Z,4.70
2019-05-07T02:57:29.472Z,4.60
2019-05-07T02:59:58.736Z,4.60
2019-05-07T03:02:28.255Z,4.60
2019-05-07T03:04:57.517Z,4.60
2019-05-07T03:07:27.084Z,4.60
2019-05-07T03:09:56.695Z,4.70
2019-05-07T03:12:25.953Z,4.70
2019-05-07T03:14:55.292Z,4.60
2019-05-07T03:17:24.931Z,4.60
2019-05-07T03:19:55.790Z,4.60
2019-05-07T03:22:25.042Z,4.70
2019-05-07T03:24:55.939Z,4.70
2019-05-07T03:27:25.196Z,4.70
2019-05-07T03:29:58.889Z,4.70
2019-05-07T03:32:40.465Z,4.70
2019-05-07T03:35:28.547Z,4.70
2019-05-07T03:37:58.595Z,4.70
2019-05-07T03:40:28.940Z,4.80
2019-05-07T03:43:01.623Z,4.80
2019-05-07T03:45:33.859Z,4.80
2019-05-07T03:48:16.686Z,4.80
2019-05-07T03:50:45.954Z,4.80
2019-05-07T03:53:15.220Z,4.80
2019-05-07T03:55:45.047Z,4.80
2019-05-07T03:58:14.850Z,4.80
2019-05-07T04:00:45.214Z,4.90
2019-05-07T04:03:18.978Z,4.80
2019-05-07T04:05:45.518Z,4.90
2019-05-07T04:08:15.040Z,4.90
2019-05-07T04:10:44.747Z,4.90
2019-05-07T04:13:14.431Z,4.90
2019-05-07T04:15:44.246Z,4.90
2019-05-07T04:18:14.062Z,4.90
2019-05-07T04:20:43.873Z,4.90
2019-05-07T04:23:13.977Z,4.90
2019-05-07T04:25:52.953Z,4.80
2019-05-07T04:28:33.838Z,4.90
2019-05-07T04:31:03.836Z,4.90
2019-05-07T04:33:37.711Z,4.90
2019-05-07T04:36:14.136Z,4.90
2019-05-07T04:38:44.000Z,4.90
2019-05-07T04:41:14.019Z,4.90
2019-05-07T04:43:43.911Z,5.00
2019-05-07T04:46:14.495Z,5.00
2019-05-07T04:48:44.382Z,5.00
2019-05-07T04:51:15.923Z,5.00
2019-05-07T04:53:45.528Z,5.00
2019-05-07T04:56:14.811Z,5.00
2019-05-07T04:58:44.082Z,5.00
2019-05-07T05:01:14.997Z,5.00
2019-05-07T05:03:44.265Z,5.10
2019-05-07T05:06:13.891Z,5.10
2019-05-07T05:08:43.741Z,5.20
2019-05-07T05:11:13.097Z,5.20
2019-05-07T05:13:44.425Z,5.30
2019-05-07T05:16:28.622Z,5.30
2019-05-07T05:18:58.376Z,5.40
2019-05-07T05:21:29.288Z,5.40
2019-05-07T05:24:01.838Z,5.50
2019-05-07T05:26:32.512Z,5.60
2019-05-07T05:29:02.494Z,5.70
2019-05-07T05:31:33.101Z,5.80
2019-05-07T05:34:02.478Z,5.90
2019-05-07T05:36:32.985Z,5.90
2019-05-07T05:39:02.660Z,5.80
2019-05-07T05:41:34.556Z,5.70
2019-05-07T05:44:06.257Z,5.70
2019-05-07T05:46:35.570Z,5.80
2019-05-07T05:49:04.840Z,5.80
2019-05-07T05:51:48.287Z,6.00
2019-05-07T05:54:19.205Z,6.10
2019-05-07T05:56:52.017Z,6.20
2019-05-07T05:59:45.023Z,6.20
2019-05-07T06:02:07.800Z,6.40
2019-05-07T06:04:39.061Z,6.70
2019-05-07T06:07:26.404Z,7.00
2019-05-07T06:10:15.446Z,7.20
2019-05-07T06:12:55.705Z,7.50
2019-05-07T06:15:42.811Z,7.70
2019-05-07T06:18:20.982Z,7.90
2019-05-07T06:20:47.053Z,8.00
2019-05-07T06:23:24.243Z,8.30
2019-05-07T06:25:53.549Z,8.50
2019-05-07T06:28:23.154Z,8.70
2019-05-07T06:30:52.979Z,8.80
2019-05-07T06:33:23.118Z,8.90
2019-05-07T06:35:52.548Z,8.90
2019-05-07T06:38:23.189Z,9.10
2019-05-07T06:40:54.362Z,9.30
2019-05-07T06:43:28.125Z,9.40
2019-05-07T06:45:59.039Z,9.50
2019-05-07T06:48:38.905Z,9.60
2019-05-07T06:50:59.894Z,9.60
2019-05-07T06:53:33.412Z,9.80
2019-05-07T06:56:04.721Z,9.90
2019-05-07T06:58:36.057Z,10.00
2019-05-07T07:01:16.726Z,10.20
2019-05-07T07:04:02.381Z,10.30
2019-05-07T07:06:32.853Z,10.40
2019-05-07T07:09:22.245Z,10.60
2019-05-07T07:12:02.208Z,10.80
2019-05-07T07:14:33.190Z,10.80
2019-05-07T07:17:02.754Z,11.10
2019-05-07T07:19:35.832Z,11.20
2019-05-07T07:22:03.314Z,11.20
2019-05-07T07:24:33.078Z,11.30
2019-05-07T07:27:02.667Z,11.50
2019-05-07T07:29:36.780Z,11.70
2019-05-07T07:32:07.771Z,11.70
2019-05-07T07:34:38.968Z,11.80
2019-05-07T07:37:15.173Z,12.00
2019-05-07T07:39:43.021Z,12.00
2019-05-07T07:42:12.556Z,12.00
2019-05-07T07:44:42.559Z,12.10
2019-05-07T07:47:12.887Z,12.20
2019-05-07T07:49:42.449Z,12.40
2019-05-07T07:52:12.322Z,12.50
2019-05-07T07:54:42.916Z,12.60
2019-05-07T07:57:16.574Z,12.60
2019-05-07T07:59:53.257Z,12.60
2019-05-07T08:02:32.072Z,12.60
2019-05-07T08:05:02.070Z,12.60
2019-05-07T08:07:33.090Z,12.50
2019-05-07T08:10:02.968Z,12.50
2019-05-07T08:12:32.660Z,12.40
2019-05-07T08:15:14.795Z,12.60
2019-05-07T08:17:33.293Z,12.50
2019-05-07T08:20:02.715Z,12.30
2019-05-07T08:22:32.977Z,12.20
2019-05-07T08:25:04.038Z,12.30
2019-05-07T08:27:33.453Z,12.40
2019-05-07T08:30:05.158Z,12.50
2019-05-07T08:32:36.142Z,12.30
2019-05-07T08:35:24.742Z,12.10
2019-05-07T08:37:54.019Z,12.00
2019-05-07T08:40:23.295Z,12.00
2019-05-07T08:42:53.259Z,12.10
2019-05-07T08:45:39.764Z,12.40
2019-05-07T08:48:16.505Z,12.60
2019-05-07T08:50:46.147Z,12.70
2019-05-07T08:53:15.673Z,12.80
2019-05-07T08:55:45.266Z,13.10
2019-05-07T08:58:14.866Z,13.30
2019-05-07T09:00:44.574Z,13.50
2019-05-07T09:03:22.118Z,13.70
2019-05-07T09:05:46.756Z,13.80
2019-05-07T09:08:16.038Z,14.10
2019-05-07T09:10:45.300Z,14.30
2019-05-07T09:13:14.577Z,14.60
2019-05-07T09:15:43.853Z,14.70
2019-05-07T09:18:13.472Z,15.00
2019-05-07T09:20:43.073Z,14.90
2019-05-07T09:23:12.688Z,14.80
2019-05-07T09:25:48.652Z,14.90
2019-05-07T09:28:19.352Z,14.70
2019-05-07T09:30:52.479Z,14.90
2019-05-07T09:33:29.143Z,14.60
2019-05-07T09:35:58.418Z,14.30
2019-05-07T09:38:27.688Z,14.10
2019-05-07T09:40:57.240Z,13.90
2019-05-07T09:43:26.584Z,14.00
2019-05-07T09:45:55.852Z,13.90
2019-05-07T09:48:25.137Z,13.80
2019-05-07T09:50:54.413Z,14.30
2019-05-07T09:53:24.048Z,14.30
2019-05-07T09:55:53.317Z,14.60
2019-05-07T09:58:35.549Z,14.80
2019-05-07T10:00:53.656Z,15.10
2019-05-07T10:03:23.196Z,15.00
2019-05-07T10:05:52.470Z,15.30
2019-05-07T10:08:21.739Z,15.30
2019-05-07T10:10:53.139Z,15.50
2019-05-07T10:13:26.195Z,15.60
2019-05-07T10:15:55.531Z,15.80
2019-05-07T10:18:24.797Z,15.60
2019-05-07T10:20:54.362Z,15.80
2019-05-07T10:23:23.829Z,16.10
2019-05-07T10:25:54.091Z,16.40
2019-05-07T10:28:23.977Z,16.80
2019-05-07T10:30:53.923Z,17.10
2019-05-07T10:33:23.335Z,17.10
2019-05-07T10:35:53.139Z,17.30
2019-05-07T10:38:22.438Z,17.40
2019-05-07T10:40:51.705Z,17.50
2019-05-07T10:43:22.250Z,17.60
2019-05-07T10:46:05.620Z,17.20
2019-05-07T10:48:42.342Z,16.90
2019-05-07T10:51:11.613Z,16.90
2019-05-07T10:53:42.440Z,17.10
2019-05-07T10:56:12.009Z,17.00
2019-05-07T10:58:41.777Z,17.10
2019-05-07T11:01:13.822Z,17.30
2019-05-07T11:03:43.083Z,17.30
2019-05-07T11:06:12.357Z,17.30
2019-05-07T11:08:42.831Z,17.60
2019-05-07T11:11:12.276Z,17.80
2019-05-07T11:13:42.247Z,18.10
2019-05-07T11:16:13.242Z,18.30
2019-05-07T11:18:44.149Z,18.90
2019-05-07T11:21:13.416Z,19.40
2019-05-07T11:23:42.700Z,19.70
2019-05-07T11:26:11.984Z,19.80
2019-05-07T11:28:41.246Z,19.90
2019-05-07T11:31:12.336Z,20.00
2019-05-07T11:33:41.737Z,20.00
2019-05-07T11:36:11.338Z,19.80
2019-05-07T11:38:41.836Z,19.80
2019-05-07T11:41:12.773Z,19.80
2019-05-07T11:43:47.030Z,19.80
2019-05-07T11:46:24.459Z,19.30
2019-05-07T11:48:58.217Z,18.70
2019-05-07T11:51:38.081Z,18.70
2019-05-07T11:54:14.072Z,18.30
2019-05-07T11:56:43.738Z,18.30
2019-05-07T11:59:13.649Z,18.20
2019-05-07T12:01:47.825Z,17.60
2019-05-07T12:04:15.769Z,17.50
2019-05-07T12:06:45.040Z,18.30
2019-05-07T12:09:14.316Z,18.60
2019-05-07T12:11:43.582Z,18.50
2019-05-07T12:14:12.858Z,18.90
2019-05-07T12:16:42.700Z,19.00
2019-05-07T12:19:13.149Z,19.40
2019-05-07T12:21:43.067Z,20.00
2019-05-07T12:24:13.550Z,20.50
2019-05-07T12:26:44.312Z,21.00
2019-05-07T12:29:13.610Z,21.30
2019-05-07T12:31:47.271Z,21.50
2019-05-07T12:34:24.243Z,21.70
2019-05-07T12:36:53.843Z,21.80
2019-05-07T12:39:23.136Z,21.80
2019-05-07T12:41:52.755Z,22.20
2019-05-07T12:44:22.267Z,22.50
2019-05-07T12:46:52.485Z,22.40
2019-05-07T12:49:22.185Z,21.90
2019-05-07T12:51:53.200Z,22.10
2019-05-07T12:54:26.597Z,21.60
2019-05-07T12:56:55.869Z,21.40
2019-05-07T12:59:25.435Z,21.50
2019-05-07T13:02:17.799Z,21.20
2019-05-07T13:04:36.866Z,21.30
2019-05-07T13:07:16.818Z,21.60
2019-05-07T13:09:46.388Z,21.70
2019-05-07T13:12:15.995Z,21.90
2019-05-07T13:14:45.609Z,22.10
2019-05-07T13:17:15.210Z,22.60
2019-05-07T13:19:44.824Z,23.10
2019-05-07T13:22:14.430Z,23.20
2019-05-07T13:24:43.700Z,23.70
2019-05-07T13:27:13.238Z,24.00
2019-05-07T13:29:44.893Z,24.40
2019-05-07T13:32:14.540Z,24.30
2019-05-07T13:34:44.997Z,24.10
2019-05-07T13:37:16.278Z,23.60
2019-05-07T13:39:47.332Z,23.10
2019-05-07T13:42:34.556Z,22.60
2019-05-07T13:45:07.229Z,22.70
2019-05-07T13:47:37.271Z,22.50
2019-05-07T13:50:08.272Z,22.40
2019-05-07T13:52:37.787Z,22.30
2019-05-07T13:55:09.463Z,22.10
2019-05-07T13:57:38.811Z,22.50
2019-05-07T14:00:12.899Z,22.90
2019-05-07T14:02:42.282Z,22.70
2019-05-07T14:05:13.999Z,22.70
2019-05-07T14:07:43.952Z,22.70
2019-05-07T14:10:13.555Z,22.50
2019-05-07T14:12:42.858Z,23.00
2019-05-07T14:15:13.008Z,23.60
2019-05-07T14:17:42.420Z,24.10
2019-05-07T14:20:13.074Z,24.40
2019-05-07T14:22:42.629Z,24.20
2019-05-07T14:25:12.491Z,24.50
2019-05-07T14:27:42.829Z,24.40
2019-05-07T14:30:13.187Z,23.90
2019-05-07T14:32:44.072Z,23.90
2019-05-07T14:35:32.194Z,23.90
2019-05-07T14:38:06.249Z,23.90
2019-05-07T14:40:35.850Z,24.40
2019-05-07T14:43:12.686Z,23.10
2019-05-07T14:45:42.370Z,22.60
2019-05-07T14:48:12.291Z,22.80
2019-05-07T14:50:44.694Z,23.10
2019-05-07T14:53:13.212Z,23.70
2019-05-07T14:55:42.584Z,24.20
2019-05-07T14:58:12.392Z,24.10
2019-05-07T15:00:42.654Z,24.10
2019-05-07T15:03:12.710Z,23.60
2019-05-07T15:05:42.356Z,23.60
2019-05-07T15:08:14.427Z,23.70
2019-05-07T15:10:43.485Z,24.10
2019-05-07T15:13:13.047Z,24.40
2019-05-07T15:15:42.856Z,24.90
2019-05-07T15:18:19.976Z,25.60
2019-05-07T15:20:49.250Z,25.70
2019-05-07T15:23:25.917Z,25.30
2019-05-07T15:25:55.511Z,24.80
2019-05-07T15:28:24.857Z,24.30
2019-05-07T15:31:04.726Z,23.70
2019-05-07T15:33:34.007Z,24.10
2019-05-07T15:36:06.448Z,24.30
2019-05-07T15:38:34.723Z,24.50
2019-05-07T15:41:04.051Z,25.30
2019-05-07T15:43:33.320Z,26.00
2019-05-07T15:46:02.826Z,26.50
2019-05-07T15:48:32.758Z,26.80
2019-05-07T15:51:02.352Z,27.40
2019-05-07T15:53:36.506Z,27.70
2019-05-07T15:56:05.773Z,28.30
2019-05-07T15:58:35.373Z,28.20
2019-05-07T16:01:05.083Z,28.10
2019-05-07T16:03:42.930Z,28.10
2019-05-07T16:06:12.940Z,28.40
2019-05-07T16:08:43.907Z,28.70
2019-05-07T16:11:13.156Z,29.50
2019-05-07T16:13:44.063Z,30.00
2019-05-07T16:16:13.339Z,29.90
2019-05-07T16:19:01.908Z,29.20
2019-05-07T16:21:32.471Z,29.60
2019-05-07T16:24:04.135Z,29.80
2019-05-07T16:26:33.054Z,29.60
2019-05-07T16:29:04.582Z,30.00
2019-05-07T16:31:33.434Z,30.20
2019-05-07T16:34:02.745Z,30.00
2019-05-07T16:36:32.945Z,29.70
2019-05-07T16:39:03.394Z,29.40
2019-05-07T16:41:33.317Z,29.10
2019-05-07T16:44:03.024Z,29.00
2019-05-07T16:46:32.233Z,28.80
2019-05-07T16:49:02.287Z,28.40
2019-05-07T16:51:33.044Z,27.90
2019-05-07T16:54:03.408Z,27.20
2019-05-07T16:56:33.442Z,26.50
2019-05-07T16:59:07.671Z,26.20
2019-05-07T17:01:37.345Z,25.90
2019-05-07T17:04:06.619Z,25.50
2019-05-07T17:06:35.893Z,25.10
2019-05-07T17:09:08.522Z,24.60
2019-05-07T17:11:37.791Z,24.50
2019-05-07T17:14:07.057Z,24.20
2019-05-07T17:16:36.322Z,23.90
2019-05-07T17:19:05.894Z,23.80
2019-05-07T17:21:35.118Z,23.80
2019-05-07T17:24:04.710Z,23.80
2019-05-07T17:26:33.979Z,23.60
2019-05-07T17:29:03.542Z,23.50
2019-05-07T17:31:32.810Z,23.50
2019-05-07T17:34:02.390Z,23.30
2019-05-07T17:36:33.044Z,23.20
2019-05-07T17:39:02.923Z,23.20
2019-05-07T17:41:32.414Z,23.00
2019-05-07T17:44:02.680Z,22.80
2019-05-07T17:46:32.575Z,22.60
2019-05-07T17:49:02.634Z,22.40
2019-05-07T17:51:42.023Z,22.10
2019-05-07T17:54:13.075Z,21.90
2019-05-07T17:56:43.578Z,21.70
2019-05-07T17:59:12.999Z,21.40
2019-05-07T18:01:43.970Z,21.20
2019-05-07T18:04:13.241Z,21.00
2019-05-07T18:06:42.839Z,20.80
2019-05-07T18:09:12.523Z,20.50
2019-05-07T18:11:42.894Z,20.30
2019-05-07T18:14:12.210Z,20.10
2019-05-07T18:16:49.199Z,19.90
2019-05-07T18:19:18.732Z,19.70
2019-05-07T18:21:48.006Z,19.40
2019-05-07T18:24:17.541Z,19.20
2019-05-07T18:26:46.884Z,19.10
2019-05-07T18:29:16.171Z,18.90
2019-05-07T18:31:47.068Z,18.70
2019-05-07T18:34:16.481Z,18.50
2019-05-07T18:36:45.755Z,18.40
2019-05-07T18:39:15.068Z,18.20
2019-05-07T18:41:44.345Z,18.10
2019-05-07T18:44:16.121Z,18.00
2019-05-07T18:46:44.618Z,17.80
2019-05-07T18:49:13.887Z,17.70
2019-05-07T18:51:43.168Z,17.50
2019-05-07T18:54:26.991Z,17.40
2019-05-07T18:56:43.430Z,17.30
2019-05-07T18:59:13.607Z,17.10
2019-05-07T19:01:44.120Z,17.00
2019-05-07T19:04:13.473Z,17.00
2019-05-07T19:06:43.138Z,16.80
2019-05-07T19:09:12.476Z,16.70
2019-05-07T19:11:42.745Z,16.60
2019-05-07T19:14:13.388Z,16.50
2019-05-07T19:16:43.163Z,16.40
2019-05-07T19:19:12.807Z,16.30
2019-05-07T19:21:42.386Z,16.20
2019-05-07T19:24:11.725Z,16.10
2019-05-07T19:26:42.100Z,16.00
2019-05-07T19:29:12.459Z,15.90
2019-05-07T19:31:41.936Z,15.90
2019-05-07T19:34:12.313Z,15.80
2019-05-07T19:36:42.402Z,15.70
2019-05-07T19:39:12.663Z,15.60
2019-05-07T19:41:42.967Z,15.50
2019-05-07T19:44:12.779Z,15.40
2019-05-07T19:46:42.115Z,15.30
2019-05-07T19:49:11.385Z,15.20
2019-05-07T19:51:42.684Z,15.10
2019-05-07T19:54:11.917Z,15.00
2019-05-07T19:56:42.755Z,14.90
2019-05-07T19:59:12.467Z,14.90
2019-05-07T20:01:46.216Z,14.80
2019-05-07T20:04:15.770Z,14.70
2019-05-07T20:06:45.380Z,14.70
2019-05-07T20:09:16.372Z,14.60
2019-05-07T20:11:47.565Z,14.50
2019-05-07T20:14:16.831Z,14.40
2019-05-07T20:16:46.122Z,14.30
2019-05-07T20:19:15.380Z,14.20
2019-05-07T20:21:44.993Z,14.10
2019-05-07T20:24:14.620Z,14.10
2019-05-07T20:26:43.868Z,14.00
2019-05-07T20:29:13.141Z,13.90
2019-05-07T20:31:42.565Z,13.90
2019-05-07T20:34:13.045Z,13.90
2019-05-07T20:36:42.881Z,13.80
2019-05-07T20:39:12.912Z,13.70
2019-05-07T20:41:43.054Z,13.70
2019-05-07T20:44:12.578Z,13.60
2019-05-07T20:46:42.250Z,13.60
2019-05-07T20:49:13.188Z,13.50
2019-05-07T20:51:42.577Z,13.40
2019-05-07T20:54:16.240Z,13.40
2019-05-07T20:56:47.166Z,13.30
2019-05-07T20:59:16.443Z,13.30
2019-05-07T21:01:45.723Z,13.20
2019-05-07T21:04:15.264Z,13.10
2019-05-07T21:06:44.881Z,13.10
2019-05-07T21:09:14.156Z,13.10
2019-05-07T21:11:43.776Z,13.00
2019-05-07T21:14:13.384Z,13.00
2019-05-07T21:16:43.009Z,13.00
2019-05-07T21:19:12.936Z,13.00
2019-05-07T21:21:42.426Z,12.90
2019-05-07T21:24:13.076Z,12.70
2019-05-07T21:26:42.621Z,12.60
2019-05-07T21:29:13.682Z,12.50
2019-05-07T21:31:43.421Z,12.50
2019-05-07T21:34:12.731Z,12.40
2019-05-07T21:36:43.259Z,12.40
2019-05-07T21:39:13.185Z,12.30
2019-05-07T21:41:42.899Z,12.20
2019-05-07T21:44:12.220Z,12.20
2019-05-07T21:46:42.619Z,12.10
2019-05-07T21:49:12.556Z,12.10
2019-05-07T21:51:41.773Z,12.00
2019-05-07T21:54:29.436Z,12.00
2019-05-07T21:57:12.847Z,11.90
2019-05-07T21:59:43.362Z,11.90
2019-05-07T22:02:17.509Z,11.80
2019-05-07T22:04:46.788Z,11.80
2019-05-07T22:07:16.059Z,11.80
2019-05-07T22:09:45.329Z,11.80
2019-05-07T22:12:14.675Z,11.80
2019-05-07T22:14:43.957Z,11.80
2019-05-07T22:17:13.227Z,11.70
2019-05-07T22:19:42.755Z,11.70
2019-05-07T22:22:12.431Z,11.60
2019-05-07T22:24:42.672Z,11.60
2019-05-07T22:27:12.920Z,11.60
2019-05-07T22:29:42.473Z,11.50
2019-05-07T22:32:29.796Z,11.40
2019-05-07T22:35:02.794Z,11.40
2019-05-07T22:37:32.543Z,11.30
2019-05-07T22:40:02.781Z,11.20
2019-05-07T22:42:32.804Z,11.10
2019-05-07T22:45:02.820Z,11.10
2019-05-07T22:47:32.744Z,11.10
2019-05-07T22:50:02.775Z,11.10
2019-05-07T22:52:32.761Z,11.10
2019-05-07T22:55:02.410Z,11.10
2019-05-07T22:57:39.203Z,11.10
2019-05-07T23:00:12.256Z,11.00
2019-05-07T23:02:42.789Z,11.00
2019-05-07T23:05:12.716Z,11.00
2019-05-07T23:07:44.062Z,11.00
2019-05-07T23:10:13.452Z,11.00
2019-05-07T23:12:43.078Z,11.00
2019-05-07T23:15:12.793Z,11.00
2019-05-07T23:17:42.396Z,10.90
2019-05-07T23:20:11.912Z,10.90
2019-05-07T23:22:42.800Z,10.90
2019-05-07T23:25:12.304Z,10.90
2019-05-07T23:27:42.037Z,10.80
2019-05-07T23:30:13.004Z,10.80
2019-05-07T23:32:42.454Z,10.70
2019-05-07T23:35:12.750Z,10.70
2019-05-07T23:37:44.175Z,10.70
2019-05-07T23:40:22.960Z,10.70
2019-05-07T23:42:56.540Z,10.70
2019-05-07T23:45:25.816Z,10.70
2019-05-07T23:47:55.100Z,10.70
2019-05-07T23:50:24.371Z,10.70
2019-05-07T23:52:53.641Z,10.70
2019-05-07T23:55:22.960Z,10.70
2019-05-07T23:57:52.600Z,10.70
